Time;durP1;ratioP1;P1;durP2;ratioP2;P2;SDS_P1;SDS_P2;PMS_P1;PMS_P2;Temp;Humidity;BMP_temperature;BMP_pressure;BME280_temperature;BME280_humidity;BME280_pressure;Samples;Min_cycle;Max_cycle;Signal;HPM_P1;HPM_P2
2022/03/16 00:00:08;;;;;;;57.47;41.25;;;;;;;11.10;56.72;102579.75;5032128;28;20056;-66
2022/03/16 00:02:41;;;;;;;56.70;41.08;;;;;;;11.07;56.88;102585.13;5031965;28;20128;-67
2022/03/16 00:05:08;;;;;;;61.17;41.55;;;;;;;11.08;56.69;102576.34;5030962;28;20087;-65
2022/03/16 00:07:35;;;;;;;61.10;41.53;;;;;;;11.08;56.92;102570.22;5031547;28;20088;-65
2022/03/16 00:10:01;;;;;;;57.85;42.42;;;;;;;11.06;56.95;102569.41;5031872;28;20107;-65
2022/03/16 00:12:28;;;;;;;58.90;41.65;;;;;;;11.07;56.86;102571.97;5031593;28;20057;-65
2022/03/16 00:14:55;;;;;;;56.05;41.22;;;;;;;11.09;56.97;102564.06;5023955;28;20046;-65
2022/03/16 00:17:21;;;;;;;55.35;41.78;;;;;;;11.10;57.10;102563.16;5032915;28;20045;-65
2022/03/16 00:19:48;;;;;;;59.38;42.13;;;;;;;11.09;57.16;102553.53;5034002;28;20041;-66
2022/03/16 00:22:15;;;;;;;59.28;41.08;;;;;;;11.09;57.25;102548.28;5034912;28;20046;-65
2022/03/16 00:24:41;;;;;;;59.10;42.65;;;;;;;11.08;57.42;102546.56;5034442;28;20049;-65
2022/03/16 00:27:08;;;;;;;56.90;41.67;;;;;;;11.07;57.42;102548.34;5014783;28;20100;-64
2022/03/16 00:29:35;;;;;;;55.97;40.65;;;;;;;11.07;57.51;102550.09;5014833;28;20104;-65
2022/03/16 00:32:03;;;;;;;57.92;43.10;;;;;;;11.06;57.66;102543.13;5014860;28;20152;-64
2022/03/16 00:34:31;;;;;;;60.83;41.15;;;;;;;11.05;57.70;102544.88;5014965;28;20100;-65
2022/03/16 00:36:59;;;;;;;57.20;41.92;;;;;;;11.05;57.71;102546.66;5018909;28;20050;-65
2022/03/16 00:39:26;;;;;;;62.42;42.47;;;;;;;11.04;57.73;102548.41;5034437;28;20438;-65
2022/03/16 00:41:53;;;;;;;58.30;42.45;;;;;;;11.04;57.78;102547.56;5034449;28;20080;-65
2022/03/16 00:44:19;;;;;;;55.95;41.35;;;;;;;11.02;57.91;102538.84;5034516;28;20053;-64
2022/03/16 00:46:46;;;;;;;58.28;42.22;;;;;;;11.03;57.86;102540.59;5034225;28;20050;-65
2022/03/16 00:49:13;;;;;;;62.45;44.78;;;;;;;11.02;57.89;102537.09;5034185;28;20045;-65
2022/03/16 00:51:40;;;;;;;64.38;44.13;;;;;;;11.03;57.97;102537.94;5034369;28;20049;-65
2022/03/16 00:54:07;;;;;;;56.85;41.83;;;;;;;11.01;58.13;102532.75;5033390;28;20110;-64
2022/03/16 00:56:33;;;;;;;58.55;42.92;;;;;;;11.00;58.05;102527.56;5022083;28;20505;-65
2022/03/16 00:59:00;;;;;;;59.22;42.60;;;;;;;11.03;58.02;102522.19;5014701;28;20045;-65
2022/03/16 01:01:26;;;;;;;62.95;44.10;;;;;;;11.01;58.07;102522.25;5022387;28;20505;-64
2022/03/16 01:03:56;;;;;;;60.75;45.03;;;;;;;11.03;58.04;102515.16;5033608;28;20049;-65
2022/03/16 01:06:23;;;;;;;63.08;43.78;;;;;;;11.02;58.08;102521.34;5033714;28;20045;-65
2022/03/16 01:08:49;;;;;;;60.13;43.03;;;;;;;11.01;58.08;102514.38;5032821;28;20095;-64
2022/03/16 01:11:16;;;;;;;57.00;43.13;;;;;;;11.00;58.08;102507.38;5031343;28;20050;-65
2022/03/16 01:13:43;;;;;;;62.08;44.42;;;;;;;10.98;58.23;102503.94;5033764;28;20383;-65
2022/03/16 01:16:10;;;;;;;61.42;44.55;;;;;;;10.97;58.13;102498.72;5033673;28;20095;-65
2022/03/16 01:18:37;;;;;;;64.85;43.35;;;;;;;10.94;58.16;102497.94;5033339;28;20049;-65
2022/03/16 01:21:05;;;;;;;60.40;44.83;;;;;;;10.96;58.37;102497.88;5032990;28;20103;-65
2022/03/16 01:23:34;;;;;;;59.22;43.88;;;;;;;10.94;58.20;102491.81;5032778;28;20485;-65
2022/03/16 01:26:00;;;;;;;63.45;45.72;;;;;;;10.92;58.39;102486.59;5033476;28;20592;-65
2022/03/16 01:28:27;;;;;;;69.07;44.30;;;;;;;10.93;58.33;102488.34;5032002;28;20049;-65
2022/03/16 01:30:53;;;;;;;65.05;45.30;;;;;;;10.93;58.49;102477.81;5032797;28;20505;-66
2022/03/16 01:33:20;;;;;;;62.55;44.03;;;;;;;10.91;58.48;102479.63;5032846;28;20080;-65
2022/03/16 01:35:47;;;;;;;63.15;44.72;;;;;;;10.93;58.42;102477.81;5033044;28;20107;-65
2022/03/16 01:38:13;;;;;;;61.63;44.35;;;;;;;10.92;58.36;102477.88;5033188;28;20064;-66
2022/03/16 01:40:40;;;;;;;62.28;43.72;;;;;;;10.92;58.18;102473.47;5032894;28;20095;-65
2022/03/16 01:43:06;;;;;;;66.03;44.97;;;;;;;10.91;58.43;102468.28;5031016;28;20092;-66
2022/03/16 01:45:33;;;;;;;63.67;45.15;;;;;;;10.90;58.65;102461.28;5033040;28;20072;-65
2022/03/16 01:48:00;;;;;;;65.45;44.28;;;;;;;10.89;58.58;102457.81;5033155;28;20041;-65
2022/03/16 01:50:26;;;;;;;61.25;44.92;;;;;;;10.89;58.65;102462.19;5032981;28;20038;-65
2022/03/16 01:52:53;;;;;;;63.80;45.80;;;;;;;10.89;58.67;102454.31;5031948;28;20046;-65
2022/03/16 01:55:20;;;;;;;61.92;45.13;;;;;;;10.89;58.63;102455.19;5032954;28;20053;-65
2022/03/16 01:57:47;;;;;;;60.83;44.00;;;;;;;10.89;58.78;102454.31;5032977;28;20050;-65
2022/03/16 02:00:15;;;;;;;60.47;44.05;;;;;;;10.88;58.76;102453.47;5031898;28;20045;-65
2022/03/16 02:02:42;;;;;;;64.47;45.05;;;;;;;10.89;58.70;102454.31;5031908;28;20092;-65
2022/03/16 02:05:09;;;;;;;62.90;44.47;;;;;;;10.87;58.77;102453.50;5032241;28;20084;-65
2022/03/16 02:07:37;;;;;;;60.85;45.20;;;;;;;10.87;58.72;102443.88;5032934;28;20041;-65
2022/03/16 02:10:05;;;;;;;66.32;46.33;;;;;;;10.87;58.79;102438.59;5033039;28;20068;-65
2022/03/16 02:12:46;;;;;;;67.47;46.67;;;;;;;10.86;58.89;102431.63;5032080;28;20045;-65
2022/03/16 02:15:12;;;;;;;60.17;44.67;;;;;;;10.86;58.82;102430.78;5031184;28;20053;-66
2022/03/16 02:17:39;;;;;;;70.93;46.88;;;;;;;10.86;59.00;102429.00;5032707;28;20053;-66
2022/03/16 02:20:07;;;;;;;61.58;45.33;;;;;;;10.85;59.07;102424.66;5032714;28;20046;-65
2022/03/16 02:22:45;;;;;;;66.72;45.75;;;;;;;10.84;59.19;102422.94;5031931;28;20045;-65
2022/03/16 02:25:11;;;;;;;63.78;45.25;;;;;;;10.84;59.21;102428.19;5032036;28;20387;-65
2022/03/16 02:27:44;;;;;;;65.88;45.35;;;;;;;10.74;59.44;102422.38;5032456;28;20100;-65
2022/03/16 02:30:20;;;;;;;64.85;45.83;;;;;;;10.79;59.37;102416.97;5030953;28;20531;-67
2022/03/16 02:32:58;;;;;;;63.30;45.13;;;;;;;10.81;59.28;102412.53;5031693;28;20045;-67
2022/03/16 02:35:31;;;;;;;67.00;46.55;;;;;;;10.83;59.36;102415.09;5031201;28;20050;-65
2022/03/16 02:37:59;;;;;;;68.32;46.55;;;;;;;10.83;59.37;102412.47;5032315;28;20053;-65
2022/03/16 02:40:25;;;;;;;65.60;46.22;;;;;;;10.83;59.21;102410.72;5031087;28;20465;-65
2022/03/16 02:42:52;;;;;;;62.35;46.22;;;;;;;10.82;59.09;102410.75;5031668;28;20041;-65
2022/03/16 02:45:19;;;;;;;66.90;46.72;;;;;;;10.80;59.13;102413.44;5031717;28;20057;-65
2022/03/16 02:47:45;;;;;;;65.38;46.25;;;;;;;10.79;59.26;102409.06;5031118;28;20045;-65
2022/03/16 02:50:13;;;;;;;63.47;45.78;;;;;;;10.79;59.16;102409.06;5032235;28;20080;-65
2022/03/16 02:52:41;;;;;;;62.45;45.03;;;;;;;10.79;59.30;102409.06;5031455;28;20045;-65
2022/03/16 02:55:24;;;;;;;65.85;46.17;;;;;;;10.80;59.35;102402.09;5032175;28;20136;-65
2022/03/16 02:57:51;;;;;;;65.88;46.13;;;;;;;10.81;59.18;102404.66;5031281;28;20045;-65
2022/03/16 03:00:18;;;;;;;63.53;46.83;;;;;;;10.81;59.27;102414.31;5032328;28;20045;-65
2022/03/16 03:02:45;;;;;;;65.32;46.35;;;;;;;10.81;59.17;102403.81;5031119;28;20470;-66
2022/03/16 03:05:11;;;;;;;64.88;46.83;;;;;;;10.82;59.22;102405.50;5032490;28;20103;-65
2022/03/16 03:07:43;;;;;;;66.97;47.58;;;;;;;10.80;59.20;102396.81;5032361;28;20228;-65
2022/03/16 03:10:10;;;;;;;63.75;46.10;;;;;;;10.80;59.10;102395.06;5032380;28;20107;-65
2022/03/16 03:12:36;;;;;;;64.28;46.05;;;;;;;10.78;59.32;102394.25;5032180;28;20091;-65
2022/03/16 03:15:04;;;;;;;67.38;46.30;;;;;;;10.78;59.32;102389.00;5036337;28;20636;-65
2022/03/16 03:17:31;;;;;;;64.07;46.22;;;;;;;10.78;59.24;102396.88;5036206;28;20049;-65
2022/03/16 03:19:58;;;;;;;67.30;46.53;;;;;;;10.75;59.35;102394.34;5035142;28;20510;-65
2022/03/16 03:22:27;;;;;;;63.53;45.15;;;;;;;10.75;59.50;102391.72;5036089;28;20091;-65
2022/03/16 03:24:55;;;;;;;67.25;46.60;;;;;;;10.75;59.43;102391.72;5036147;28;20057;-65
2022/03/16 03:27:22;;;;;;;68.43;47.17;;;;;;;10.75;59.53;102381.22;5036246;28;20452;-65
2022/03/16 03:29:49;;;;;;;67.68;47.53;;;;;;;10.76;59.58;102382.94;5035873;28;20552;-64
2022/03/16 03:32:16;;;;;;;66.40;47.00;;;;;;;10.76;59.65;102377.69;5036001;28;20050;-64
2022/03/16 03:34:50;;;;;;;63.38;45.95;;;;;;;10.74;59.81;102374.22;5034872;28;20049;-65
2022/03/16 03:37:17;;;;;;;69.55;47.10;;;;;;;10.74;59.87;102375.09;5035759;28;20053;-65
2022/03/16 03:39:45;;;;;;;65.65;47.50;;;;;;;10.73;59.86;102383.88;5035853;28;20725;-65
2022/03/16 03:42:11;;;;;;;64.05;46.90;;;;;;;10.73;59.81;102376.00;5035851;28;20057;-65
2022/03/16 03:44:38;;;;;;;68.72;48.45;;;;;;;10.73;59.79;102375.16;5035551;28;20092;-65
2022/03/16 03:47:06;;;;;;;62.20;45.83;;;;;;;10.72;60.00;102369.03;5035870;28;20053;-65
2022/03/16 03:49:34;;;;;;;68.95;47.17;;;;;;;10.72;60.04;102366.41;5035746;28;20041;-67
2022/03/16 03:52:01;;;;;;;67.68;47.03;;;;;;;10.72;59.88;102362.94;5034623;28;20452;-65
2022/03/16 03:54:28;;;;;;;68.45;46.28;;;;;;;10.71;60.19;102364.69;5035630;28;20119;-65
2022/03/16 03:56:55;;;;;;;67.07;47.72;;;;;;;10.70;60.09;102357.72;5035638;28;20057;-65
2022/03/16 03:59:23;;;;;;;64.57;46.95;;;;;;;10.70;60.23;102352.47;5035581;28;20075;-65
2022/03/16 04:01:50;;;;;;;69.55;48.25;;;;;;;10.69;60.21;102355.13;5034297;28;20053;-65
2022/03/16 04:04:18;;;;;;;68.57;48.60;;;;;;;10.68;60.30;102349.03;5030114;28;20053;-64
2022/03/16 04:06:45;;;;;;;66.43;49.35;;;;;;;10.67;60.09;102343.84;5030764;28;20091;-65
2022/03/16 04:09:12;;;;;;;67.72;47.90;;;;;;;10.66;60.40;102348.22;5030817;28;20290;-65
2022/03/16 04:11:38;;;;;;;67.82;47.78;;;;;;;10.66;60.37;102350.00;5032138;28;20092;-65
2022/03/16 04:14:06;;;;;;;67.25;46.97;;;;;;;10.67;60.40;102351.72;5032103;28;20140;-65
2022/03/16 04:16:32;;;;;;;67.05;47.45;;;;;;;10.68;60.47;102350.78;5031827;28;20051;-65
2022/03/16 04:18:59;;;;;;;67.82;46.90;;;;;;;10.67;60.40;102347.31;5031845;28;20049;-65
2022/03/16 04:21:26;;;;;;;69.05;47.70;;;;;;;10.68;60.59;102350.78;5031931;28;20456;-65
2022/03/16 04:23:54;;;;;;;69.22;49.42;;;;;;;10.66;60.78;102339.50;5031264;28;20046;-65
2022/03/16 04:26:20;;;;;;;66.30;48.88;;;;;;;10.63;60.79;102335.19;5030809;28;20050;-65
2022/03/16 04:28:47;;;;;;;67.50;48.45;;;;;;;10.63;61.07;102340.44;5031760;28;20054;-65
2022/03/16 04:31:14;;;;;;;65.57;48.28;;;;;;;10.62;61.04;102338.72;5031402;28;20045;-65
2022/03/16 04:33:41;;;;;;;67.10;48.95;;;;;;;10.61;61.06;102337.88;5031325;28;20132;-66
2022/03/16 04:36:08;;;;;;;71.30;48.42;;;;;;;10.57;61.16;102330.97;5031504;28;20472;-65
2022/03/16 04:38:34;;;;;;;69.53;50.00;;;;;;;10.59;61.26;102331.81;5031414;28;20045;-65
2022/03/16 04:41:02;;;;;;;74.10;48.92;;;;;;;10.57;61.37;102330.97;5030278;28;20460;-65
2022/03/16 04:43:28;;;;;;;69.50;48.67;;;;;;;10.59;61.47;102323.09;5031525;28;20046;-65
2022/03/16 04:45:55;;;;;;;67.15;48.50;;;;;;;10.57;61.51;102320.47;5031187;28;20103;-65
2022/03/16 04:48:22;;;;;;;70.65;48.63;;;;;;;10.57;61.72;102324.88;5031358;28;20466;-65
2022/03/16 04:50:49;;;;;;;70.97;50.83;;;;;;;10.54;61.83;102315.34;5031107;28;20548;-65
2022/03/16 04:53:15;;;;;;;66.90;49.20;;;;;;;10.54;61.88;102320.59;5031308;28;20045;-65
2022/03/16 04:55:42;;;;;;;70.35;49.17;;;;;;;10.52;61.89;102317.13;5031158;28;20092;-65
2022/03/16 04:58:09;;;;;;;75.55;49.78;;;;;;;10.51;62.01;102315.41;5030196;28;20049;-65
2022/03/16 05:00:37;;;;;;;67.15;48.95;;;;;;;10.52;62.23;102314.50;5031262;28;20058;-65
2022/03/16 05:03:04;;;;;;;77.85;49.10;;;;;;;10.50;62.18;102313.72;5031326;28;20053;-65
2022/03/16 05:05:31;;;;;;;67.82;48.38;;;;;;;10.54;61.99;102319.72;5030931;28;20493;-65
2022/03/16 05:07:58;;;;;;;68.70;50.08;;;;;;;10.52;62.14;102329.41;5031068;28;20088;-66
2022/03/16 05:10:24;;;;;;;71.20;48.70;;;;;;;10.51;62.15;102322.44;5031170;28;20099;-65
2022/03/16 05:12:51;;;;;;;67.93;48.80;;;;;;;10.51;62.15;102328.53;5030888;28;20144;-64
2022/03/16 05:15:19;;;;;;;66.95;48.83;;;;;;;10.54;62.02;102330.22;5029858;28;20049;-67
2022/03/16 05:17:47;;;;;;;72.95;50.13;;;;;;;10.52;62.11;102332.88;5030870;28;20433;-65
2022/03/16 05:20:15;;;;;;;73.75;48.50;;;;;;;10.48;62.21;102328.66;5029997;28;20042;-65
2022/03/16 05:22:50;;;;;;;72.72;48.72;;;;;;;10.49;62.10;102329.50;5030400;28;20107;-65
2022/03/16 05:25:21;;;;;;;70.90;49.45;;;;;;;10.48;62.18;102328.66;5030732;28;20061;-65
2022/03/16 05:27:47;;;;;;;68.82;48.22;;;;;;;10.48;62.32;102339.16;5030529;28;20111;-65
2022/03/16 05:30:14;;;;;;;70.28;47.90;;;;;;;10.48;62.31;102331.28;5030876;28;20056;-65
2022/03/16 05:32:42;;;;;;;71.35;48.22;;;;;;;10.48;62.47;102336.53;5029265;28;20041;-66
2022/03/16 05:35:11;;;;;;;77.63;49.92;;;;;;;10.52;62.28;102340.75;5029838;28;20076;-65
2022/03/16 05:37:38;;;;;;;71.22;48.47;;;;;;;10.50;62.24;102337.34;5029782;28;20045;-65
2022/03/16 05:40:08;;;;;;;71.03;47.95;;;;;;;10.50;62.44;102336.47;5030332;28;20573;-68
2022/03/16 05:42:35;;;;;;;76.05;50.58;;;;;;;10.51;62.30;102336.41;5030216;28;20505;-65
2022/03/16 05:45:03;;;;;;;76.00;52.22;;;;;;;10.51;62.29;102335.56;5030535;28;20054;-67
2022/03/16 05:47:30;;;;;;;80.35;53.22;;;;;;;10.51;62.45;102336.41;5029875;28;20126;-65
2022/03/16 05:49:56;;;;;;;77.95;51.42;;;;;;;10.48;62.47;102339.16;5029420;28;20489;-64
2022/03/16 05:52:26;;;;;;;71.22;50.15;;;;;;;10.48;62.20;102340.94;5030155;28;20057;-65
2022/03/16 05:54:54;;;;;;;77.43;51.53;;;;;;;10.48;62.11;102338.31;5029969;28;20053;-64
2022/03/16 05:57:22;;;;;;;74.07;49.83;;;;;;;10.49;61.92;102346.13;5029740;28;20116;-65
2022/03/16 05:59:49;;;;;;;73.10;50.38;;;;;;;10.45;62.04;102342.72;5029937;28;20050;-65
2022/03/16 06:02:16;;;;;;;71.60;50.60;;;;;;;10.49;61.73;102346.13;5028055;28;20046;-65
2022/03/16 06:04:43;;;;;;;21.25;16.13;;;;;;;11.07;60.72;102338.16;5028953;28;20049;-65
2022/03/16 06:07:22;;;;;;;28.95;22.33;;;;;;;11.70;60.17;102342.16;5029930;28;20473;-62
2022/03/16 06:09:51;;;;;;;69.38;48.33;;;;;;;11.97;59.63;102345.59;5029581;28;20045;-61
2022/03/16 06:12:17;;;;;;;72.93;50.22;;;;;;;11.50;60.55;102348.13;5026994;28;20091;-62
2022/03/16 06:14:44;;;;;;;70.28;50.70;;;;;;;11.25;61.06;102347.19;5017765;28;20561;-64
2022/03/16 06:17:11;;;;;;;73.10;51.40;;;;;;;11.07;61.04;102348.69;5017701;28;20057;-61
2022/03/16 06:19:37;;;;;;;75.05;50.13;;;;;;;10.97;61.13;102356.88;5028390;28;20440;-62
2022/03/16 06:22:04;;;;;;;74.75;51.22;;;;;;;10.86;61.08;102352.84;5028452;28;20188;-61
2022/03/16 06:24:31;;;;;;;73.05;50.03;;;;;;;10.82;61.07;102351.22;5029321;28;20128;-60
2022/03/16 06:26:58;;;;;;;72.32;50.65;;;;;;;10.77;60.96;102359.25;5029397;28;20045;-61
2022/03/16 06:29:25;;;;;;;74.82;49.00;;;;;;;10.74;60.99;102358.47;5029276;28;20537;-60
2022/03/16 06:31:52;;;;;;;73.07;50.25;;;;;;;10.73;60.85;102352.38;5028637;28;20485;-62
2022/03/16 06:34:18;;;;;;;69.75;48.92;;;;;;;10.73;60.83;102364.66;5021208;28;20041;-61
2022/03/16 06:36:45;;;;;;;77.97;50.03;;;;;;;10.73;60.71;102357.63;5015567;28;20135;-61
2022/03/16 06:39:12;;;;;;;75.97;49.72;;;;;;;10.74;60.68;102355.84;5021351;28;20080;-61
2022/03/16 06:41:38;;;;;;;75.03;49.25;;;;;;;10.74;60.79;102353.22;5017874;28;20045;-61
2022/03/16 06:44:05;;;;;;;74.65;49.97;;;;;;;10.77;60.64;102354.00;5017953;28;20042;-61
2022/03/16 06:46:32;;;;;;;70.07;47.72;;;;;;;10.77;60.53;102358.41;5023429;28;20054;-61
2022/03/16 06:48:58;;;;;;;73.05;50.30;;;;;;;10.79;60.42;102361.81;5029034;28;20053;-60
2022/03/16 06:51:25;;;;;;;72.07;49.58;;;;;;;10.80;60.57;102353.03;5028975;28;20119;-61
2022/03/16 06:53:51;;;;;;;55.47;32.55;;;;;;;11.11;60.29;102357.31;5028597;28;20150;-63
2022/03/16 06:56:18;;;;;;;56.08;35.25;;;;;;;11.79;59.40;102360.25;5026672;28;20472;-62
2022/03/16 06:58:44;;;;;;;57.22;37.97;;;;;;;12.16;58.80;102361.56;5028887;28;20049;-62
2022/03/16 07:01:11;;;;;;;62.67;36.13;;;;;;;12.40;58.57;102354.53;5028966;28;20121;-63
2022/03/16 07:03:38;;;;;;;57.17;35.42;;;;;;;12.65;58.01;102357.97;5028868;28;20057;-63
2022/03/16 07:06:05;;;;;;;53.83;38.25;;;;;;;12.84;57.75;102363.38;5028881;28;20124;-62
2022/03/16 07:08:31;;;;;;;72.65;50.25;;;;;;;12.70;57.46;102358.66;5028923;28;20054;-61
2022/03/16 07:10:58;;;;;;;77.55;51.50;;;;;;;12.18;58.48;102369.41;5027831;28;20115;-62
2022/03/16 07:13:24;;;;;;;76.57;50.85;;;;;;;11.99;58.92;102371.88;5024194;28;20046;-63
2022/03/16 07:15:51;;;;;;;75.80;52.03;;;;;;;11.86;59.02;102371.41;5017898;28;20046;-62
2022/03/16 07:18:19;;;;;;;73.90;51.65;;;;;;;11.76;59.16;102381.41;5015713;28;20086;-62
2022/03/16 07:20:47;;;;;;;75.25;50.50;;;;;;;11.72;59.20;102371.91;5009321;28;20181;-62
2022/03/16 07:23:15;;;;;;;83.35;51.88;;;;;;;11.71;58.96;102380.72;5009576;28;20491;-64
2022/03/16 07:25:44;;;;;;;78.10;52.50;;;;;;;11.69;58.85;102379.88;5008470;28;20494;-64
2022/03/16 07:28:12;;;;;;;74.35;51.78;;;;;;;11.70;58.69;102376.34;5009258;28;20046;-61
2022/03/16 07:30:39;;;;;;;79.93;52.83;;;;;;;11.70;58.72;102382.47;5014589;28;20461;-61
2022/03/16 07:33:06;;;;;;;78.43;52.60;;;;;;;11.69;58.57;102380.75;5028878;28;20049;-62
2022/03/16 07:35:35;;;;;;;76.40;52.28;;;;;;;11.77;58.42;102377.88;5028141;28;20099;-62
2022/03/16 07:38:02;;;;;;;77.47;51.72;;;;;;;11.84;58.17;102381.13;5026667;28;20096;-63
2022/03/16 07:40:31;;;;;;;79.88;54.33;;;;;;;11.90;57.94;102381.75;5028069;28;20196;-62
2022/03/16 07:42:58;;;;;;;75.38;51.30;;;;;;;12.03;57.53;102382.19;5028517;28;20049;-63
2022/03/16 07:45:24;;;;;;;70.72;48.95;;;;;;;12.12;57.20;102377.53;5026457;28;20103;-65
2022/03/16 07:47:56;;;;;;;76.18;50.67;;;;;;;12.20;56.99;102375.47;5027400;28;20045;-67
2022/03/16 07:50:24;;;;;;;76.25;52.90;;;;;;;12.27;56.83;102376.97;5028299;28;20132;-62
2022/03/16 07:52:51;;;;;;;74.00;51.60;;;;;;;12.34;56.68;102382.84;5028422;28;20080;-62
2022/03/16 07:55:17;;;;;;;77.45;52.47;;;;;;;12.39;56.43;102373.88;5028467;28;20494;-62
2022/03/16 07:57:44;;;;;;;78.88;53.20;;;;;;;12.50;56.03;102377.88;5028552;28;20104;-61
2022/03/16 08:00:12;;;;;;;76.47;51.13;;;;;;;12.58;55.99;102373.13;5030869;28;20049;-62
2022/03/16 08:02:40;;;;;;;77.65;52.08;;;;;;;12.68;55.76;102358.69;5031377;28;20049;-62
2022/03/16 08:05:07;;;;;;;76.38;49.97;;;;;;;12.73;55.63;102367.28;5032094;28;20099;-62
2022/03/16 08:07:34;;;;;;;77.78;51.25;;;;;;;12.86;55.48;102356.25;5032161;28;20095;-62
2022/03/16 08:10:01;;;;;;;75.72;50.10;;;;;;;12.93;55.40;102362.16;5032001;28;20080;-62
2022/03/16 08:12:27;;;;;;;77.95;50.25;;;;;;;13.00;55.25;102358.31;5031900;28;20087;-62
2022/03/16 08:14:54;;;;;;;75.30;49.30;;;;;;;13.14;55.12;102373.56;5031805;28;20195;-63
2022/03/16 08:17:21;;;;;;;77.60;51.22;;;;;;;13.20;54.94;102368.91;5031889;28;20087;-62
2022/03/16 08:19:48;;;;;;;81.45;50.30;;;;;;;13.28;55.02;102362.44;5031042;28;20046;-62
2022/03/16 08:22:40;;;;;;;79.78;49.00;;;;;;;13.25;54.93;102362.59;5031793;28;20095;-62
2022/03/16 08:25:10;;;;;;;78.57;49.80;;;;;;;13.35;54.82;102363.91;5029707;28;20088;-61
2022/03/16 08:27:37;;;;;;;79.57;48.90;;;;;;;13.46;54.47;102364.34;5031606;28;20057;-63
2022/03/16 08:30:06;;;;;;;77.25;48.15;;;;;;;13.50;54.53;102367.72;5031725;28;20068;-62
2022/03/16 08:32:33;;;;;;;85.85;53.05;;;;;;;13.58;54.16;102362.97;5031418;28;20100;-62
2022/03/16 08:34:59;;;;;;;83.38;50.92;;;;;;;13.66;54.32;102368.78;5031250;28;20045;-62
2022/03/16 08:37:26;;;;;;;73.90;47.75;;;;;;;13.68;54.07;102371.34;5030486;28;20050;-62
2022/03/16 08:39:53;;;;;;;79.03;48.28;;;;;;;13.82;53.80;102368.94;5031365;28;20080;-61
2022/03/16 08:42:19;;;;;;;71.15;47.00;;;;;;;13.95;53.89;102363.97;5031616;28;20468;-62
2022/03/16 08:44:46;;;;;;;74.60;47.55;;;;;;;14.09;53.06;102363.34;5031529;28;20046;-62
2022/03/16 08:47:16;;;;;;;70.82;45.85;;;;;;;14.19;52.95;102362.03;5031480;28;20477;-62
2022/03/16 08:49:45;;;;;;;71.85;45.80;;;;;;;14.28;52.84;102354.59;5031267;28;20515;-63
2022/03/16 08:52:13;;;;;;;75.40;46.10;;;;;;;14.43;52.32;102351.22;5030031;28;20046;-63
2022/03/16 08:54:40;;;;;;;75.00;46.47;;;;;;;14.54;52.01;102354.22;5031049;28;20493;-62
2022/03/16 08:57:10;;;;;;;72.72;47.70;;;;;;;14.65;52.19;102355.50;5030894;28;20053;-62
2022/03/16 08:59:38;;;;;;;70.53;46.65;;;;;;;14.50;52.04;102349.13;5031015;28;20049;-62
2022/03/16 09:02:06;;;;;;;70.25;46.75;;;;;;;14.65;51.71;102356.38;5031195;28;20049;-62
2022/03/16 09:04:34;;;;;;;69.78;47.47;;;;;;;14.76;51.54;102355.84;5031023;28;20049;-62
2022/03/16 09:07:04;;;;;;;69.15;46.65;;;;;;;14.81;51.25;102355.63;5030815;28;20781;-62
2022/03/16 09:09:37;;;;;;;71.18;47.25;;;;;;;14.90;50.73;102347.25;5029749;28;20057;-62
2022/03/16 09:12:04;;;;;;;67.68;46.58;;;;;;;14.88;50.78;102350.91;5030915;28;20053;-62
2022/03/16 09:14:30;;;;;;;72.40;48.03;;;;;;;14.96;50.66;102346.09;5030794;28;20049;-62
2022/03/16 09:16:58;;;;;;;66.28;46.88;;;;;;;15.16;49.85;102345.09;5030939;28;20054;-62
2022/03/16 09:19:25;;;;;;;67.72;47.35;;;;;;;15.34;49.66;102343.31;5030781;28;20072;-62
2022/03/16 09:21:52;;;;;;;72.32;47.92;;;;;;;15.23;50.07;102345.66;5030534;28;20460;-62
2022/03/16 09:24:19;;;;;;;74.78;48.95;;;;;;;15.41;49.69;102355.28;5029478;28;20057;-63
2022/03/16 09:26:46;;;;;;;72.88;49.20;;;;;;;15.55;49.36;102345.78;5030430;28;20104;-62
2022/03/16 09:29:13;;;;;;;69.45;48.10;;;;;;;15.59;48.93;102342.03;5030365;28;20049;-62
2022/03/16 09:31:40;;;;;;;72.32;48.95;;;;;;;15.68;48.96;102331.81;5030632;28;20412;-62
2022/03/16 09:34:07;;;;;;;68.97;48.70;;;;;;;15.85;48.62;102332.75;5030632;28;20046;-63
2022/03/16 09:36:35;;;;;;;71.15;48.63;;;;;;;15.78;48.47;102328.69;5030237;28;20057;-62
2022/03/16 09:39:01;;;;;;;71.57;47.97;;;;;;;15.73;48.54;102323.66;5030211;28;20478;-62
2022/03/16 09:41:29;;;;;;;68.35;47.75;;;;;;;15.89;48.46;102317.56;5029108;28;20050;-67
2022/03/16 09:44:03;;;;;;;68.32;48.10;;;;;;;16.09;48.04;102319.97;5030030;28;20049;-68
2022/03/16 09:46:31;;;;;;;69.53;49.53;;;;;;;16.30;47.26;102303.81;5029865;28;20049;-63
2022/03/16 09:48:59;;;;;;;71.55;49.63;;;;;;;16.52;46.82;102303.50;5030146;28;20494;-62
2022/03/16 09:51:26;;;;;;;70.65;49.05;;;;;;;16.52;47.28;102302.63;5030035;28;20045;-62
2022/03/16 09:53:53;;;;;;;70.53;49.75;;;;;;;16.57;46.96;102303.19;5029871;28;20053;-62
2022/03/16 09:56:20;;;;;;;66.75;48.08;;;;;;;16.67;46.87;102293.81;5029897;28;20049;-62
2022/03/16 09:58:47;;;;;;;68.10;48.55;;;;;;;16.75;46.36;102290.72;5028945;28;20057;-62
2022/03/16 10:01:13;;;;;;;68.78;48.63;;;;;;;16.71;46.43;102292.69;5029999;28;20091;-62
2022/03/16 10:03:48;;;;;;;71.00;48.58;;;;;;;16.57;47.13;102290.81;5029972;28;20045;-63
2022/03/16 10:06:22;;;;;;;68.10;47.58;;;;;;;16.90;46.17;102292.47;5029680;28;20512;-62
2022/03/16 10:13:13;;;;;;;67.57;46.75;;;;;;;17.05;45.90;102288.09;5029877;28;20049;-63
2022/03/16 10:14:20;;;;;;;66.50;46.35;;;;;;;17.14;45.28;102289.31;5029653;28;20437;-63
2022/03/16 10:19:51;;;;;;;64.72;46.05;;;;;;;16.94;45.65;102283.41;5029556;28;20058;-62
2022/03/16 10:22:25;;;;;;;68.30;46.95;;;;;;;17.11;45.78;102274.44;5029033;28;20045;-62
2022/03/16 10:25:03;;;;;;;68.47;46.45;;;;;;;16.83;46.18;102267.25;5029229;28;20072;-63
2022/03/16 10:27:30;;;;;;;66.57;46.22;;;;;;;17.08;45.93;102274.63;5029110;28;20099;-63
2022/03/16 10:29:57;;;;;;;67.20;47.55;;;;;;;17.22;45.28;102268.50;5028476;28;20084;-65
2022/03/16 10:32:24;;;;;;;66.93;46.30;;;;;;;17.43;44.76;102260.16;5029527;28;20041;-62
2022/03/16 10:34:55;;;;;;;65.85;46.30;;;;;;;17.38;45.31;102262.25;5029145;28;20041;-62
2022/03/16 10:37:23;;;;;;;64.10;45.60;;;;;;;17.45;44.88;102256.47;5029022;28;20111;-62
2022/03/16 10:39:52;;;;;;;63.40;45.22;;;;;;;17.27;45.64;102249.66;5029171;28;20155;-62
2022/03/16 10:48:20;;;;;;;60.10;43.80;;;;;;;17.03;46.25;102239.56;5028095;28;20344;-62
2022/03/16 10:50:49;;;;;;;67.65;45.20;;;;;;;16.93;46.06;102231.31;5028983;28;20597;-62
2022/03/16 10:53:18;;;;;;;62.00;44.88;;;;;;;16.99;46.05;102227.47;5029151;28;20539;-62
2022/03/16 10:55:46;;;;;;;62.55;44.72;;;;;;;16.98;46.13;102223.09;5029144;28;20563;-62
2022/03/16 10:58:14;;;;;;;61.35;44.70;;;;;;;17.07;46.33;102216.38;5029084;28;20053;-62
2022/03/16 11:00:41;;;;;;;60.30;44.88;;;;;;;17.07;46.44;102217.22;5029382;28;20045;-62
2022/03/16 11:03:17;;;;;;;63.28;45.00;;;;;;;17.04;46.40;102213.91;5028460;28;20053;-64
2022/03/16 11:05:45;;;;;;;59.80;44.38;;;;;;;16.95;46.37;102215.31;5028864;28;20049;-63
2022/03/16 11:08:12;;;;;;;64.30;44.47;;;;;;;17.04;46.29;102206.81;5028839;28;20091;-66
2022/03/16 11:10:40;;;;;;;58.03;43.78;;;;;;;17.07;46.04;102209.25;5029020;28;20406;-63
2022/03/16 11:15:59;;;;;;;62.45;44.97;;;;;;;16.88;46.24;102196.22;5028876;28;20058;-62
2022/03/16 11:18:27;;;;;;;63.78;45.35;;;;;;;16.77;46.68;102198.66;5027861;28;20056;-69
2022/03/16 11:21:07;;;;;;;57.22;42.15;;;;;;;16.70;46.44;102192.06;5028752;28;20453;-66
2022/03/16 11:26:53;;;;;;;59.75;42.08;;;;;;;16.95;46.23;102191.44;5028630;28;20441;-67
2022/03/16 11:29:23;;;;;;;61.75;42.30;;;;;;;16.84;46.54;102185.94;5028899;28;20404;-63